Time;durP1;ratioP1;P1;durP2;ratioP2;P2;SDS_P1;SDS_P2;PMS_P1;PMS_P2;Temp;Humidity;BMP_temperature;BMP_pressure;BME280_temperature;BME280_humidity;BME280_pressure;Samples;Min_cycle;Max_cycle;Signal;HPM_P1;HPM_P2
2023/11/24 04:07:02;;;;;;;0.30;0.20;;;8.60;99.90;;;;;;5098166;23;20240;-64
2023/11/24 04:09:27;;;;;;;0.30;0.30;;;8.60;99.90;;;;;;4980393;28;20184;-65
2023/11/24 04:11:54;;;;;;;0.30;0.30;;;8.60;99.90;;;;;;4977705;28;20438;-65
2023/11/24 04:14:21;;;;;;;0.30;0.30;;;8.60;99.90;;;;;;4977301;28;20279;-65
2023/11/24 04:16:46;;;;;;;0.30;0.30;;;8.60;99.90;;;;;;4960375;28;20211;-65
2023/11/24 04:19:13;;;;;;;0.30;0.30;;;8.60;99.90;;;;;;4959088;28;20196;-65
2023/11/24 04:21:41;;;;;;;0.30;0.30;;;8.60;99.90;;;;;;4975491;28;20176;-65
2023/11/24 04:24:07;;;;;;;0.30;0.30;;;8.60;99.90;;;;;;4977148;28;20255;-66
2023/11/24 04:26:34;;;;;;;0.30;0.30;;;8.60;99.90;;;;;;4977213;28;20718;-66
2023/11/24 04:29:00;;;;;;;0.30;0.30;;;8.60;99.90;;;;;;4977297;28;20173;-65
2023/11/24 04:31:25;;;;;;;0.30;0.30;;;8.60;99.90;;;;;;4977208;28;20164;-65
2023/11/24 04:33:51;;;;;;;0.30;0.30;;;8.60;99.90;;;;;;4975368;28;20532;-65
2023/11/24 04:36:17;;;;;;;0.33;0.33;;;8.60;99.90;;;;;;4956376;28;20283;-64
2023/11/24 04:38:45;;;;;;;0.30;0.20;;;8.50;99.90;;;;;;4957580;29;20200;-65
2023/11/24 04:41:11;;;;;;;0.30;0.30;;;8.60;99.90;;;;;;4957936;29;20177;-64
2023/11/24 04:43:36;;;;;;;0.30;0.30;;;8.60;99.90;;;;;;4957821;29;20187;-64
2023/11/24 04:46:02;;;;;;;0.30;0.30;;;8.60;99.90;;;;;;4958207;28;20796;-64
2023/11/24 04:48:29;;;;;;;0.33;0.33;;;8.60;99.90;;;;;;4957841;29;20212;-64
2023/11/24 04:50:55;;;;;;;0.30;0.20;;;8.60;99.90;;;;;;4957387;29;20588;-64
2023/11/24 04:53:20;;;;;;;0.30;0.30;;;8.60;99.90;;;;;;4957703;29;20213;-64
2023/11/24 04:55:46;;;;;;;0.30;0.30;;;8.50;99.90;;;;;;4957221;28;20669;-65
2023/11/24 04:58:11;;;;;;;0.40;0.40;;;8.40;99.90;;;;;;4957581;29;20280;-65
2023/11/24 05:00:37;;;;;;;0.40;0.40;;;8.30;99.90;;;;;;4974057;28;20176;-65
2023/11/24 05:03:03;;;;;;;0.30;0.30;;;8.20;99.90;;;;;;4976846;28;20172;-64
2023/11/24 05:05:28;;;;;;;0.30;0.30;;;8.00;99.90;;;;;;4976170;28;20203;-65
2023/11/24 05:07:54;;;;;;;0.30;0.30;;;7.90;99.90;;;;;;4976478;28;20195;-65
2023/11/24 05:10:19;;;;;;;0.40;0.40;;;7.90;99.90;;;;;;4977007;28;20256;-64
2023/11/24 05:12:45;;;;;;;0.30;0.30;;;7.80;99.90;;;;;;4976260;28;20176;-64
2023/11/24 05:15:11;;;;;;;0.47;0.47;;;7.80;99.90;;;;;;4960519;28;20259;-64
2023/11/24 05:17:38;;;;;;;0.40;0.40;;;7.70;99.90;;;;;;4957583;29;20204;-64
2023/11/24 05:20:05;;;;;;;0.30;0.30;;;7.60;99.90;;;;;;4957639;29;20176;-64
2023/11/24 05:22:31;;;;;;;0.40;0.40;;;7.60;99.90;;;;;;4958319;29;20532;-64
2023/11/24 05:24:57;;;;;;;0.40;0.40;;;7.50;99.90;;;;;;4958715;28;20261;-64
2023/11/24 05:27:23;;;;;;;0.30;0.30;;;7.50;99.90;;;;;;4976218;28;20402;-64
2023/11/24 05:29:49;;;;;;;0.30;0.30;;;7.50;99.90;;;;;;4976268;28;20262;-64
2023/11/24 05:32:14;;;;;;;0.30;0.30;;;7.40;99.90;;;;;;4976274;28;20519;-65
2023/11/24 05:34:40;;;;;;;0.40;0.40;;;7.40;99.90;;;;;;4975736;28;20188;-64
2023/11/24 05:37:07;;;;;;;0.30;0.30;;;7.30;99.90;;;;;;4976057;28;20203;-64
2023/11/24 05:39:35;;;;;;;0.30;0.30;;;7.30;99.90;;;;;;4974631;28;20466;-65
2023/11/24 05:42:01;;;;;;;0.35;0.35;;;7.20;99.90;;;;;;4970618;28;20655;-65
2023/11/24 05:44:26;;;;;;;0.30;0.30;;;7.20;99.90;;;;;;4957882;28;20207;-65
2023/11/24 05:46:52;;;;;;;0.30;0.30;;;7.20;99.90;;;;;;4975892;28;20423;-66
2023/11/24 05:49:17;;;;;;;0.50;0.50;;;7.10;99.90;;;;;;4976080;28;20179;-66
2023/11/24 05:51:43;;;;;;;0.30;0.30;;;7.10;99.90;;;;;;4975873;28;20230;-64
2023/11/24 05:54:12;;;;;;;0.30;0.30;;;7.10;99.90;;;;;;4975191;28;20211;-65
2023/11/24 05:56:38;;;;;;;0.30;0.30;;;7.10;99.90;;;;;;4975730;28;20241;-64
2023/11/24 05:59:03;;;;;;;0.30;0.30;;;7.00;99.90;;;;;;4975715;28;20231;-65
2023/11/24 06:01:29;;;;;;;0.33;0.33;;;7.00;99.90;;;;;;4973264;28;20411;-65
2023/11/24 06:03:55;;;;;;;0.37;0.37;;;7.00;99.90;;;;;;4974691;28;20647;-64
2023/11/24 06:06:20;;;;;;;0.40;0.40;;;7.00;99.90;;;;;;4975234;28;20294;-65
2023/11/24 06:08:46;;;;;;;0.40;0.40;;;7.00;99.90;;;;;;4975199;28;20183;-65
2023/11/24 06:11:11;;;;;;;0.40;0.40;;;7.00;99.90;;;;;;4975240;28;20186;-65
2023/11/24 06:13:37;;;;;;;0.30;0.30;;;7.00;99.90;;;;;;4975241;28;20172;-64
2023/11/24 06:16:03;;;;;;;0.40;0.40;;;7.00;99.90;;;;;;4974242;28;20776;-64
2023/11/24 06:18:30;;;;;;;0.30;0.30;;;7.00;99.90;;;;;;4975059;28;20676;-65
2023/11/24 06:20:56;;;;;;;0.30;0.30;;;6.90;99.90;;;;;;4975151;28;20673;-65
2023/11/24 06:23:21;;;;;;;0.43;0.43;;;6.90;99.90;;;;;;4974673;28;20270;-65
2023/11/24 06:25:47;;;;;;;16.67;1.00;;;7.00;99.90;;;;;;4974136;28;20660;-64
2023/11/24 06:28:12;;;;;;;0.50;0.50;;;7.00;99.90;;;;;;4975023;28;20540;-64
2023/11/24 06:30:38;;;;;;;0.40;0.40;;;7.00;99.90;;;;;;4975016;28;20183;-66
2023/11/24 06:33:04;;;;;;;0.35;0.35;;;7.00;99.90;;;;;;4975018;28;20678;-65
2023/11/24 06:35:29;;;;;;;0.30;0.30;;;6.90;99.90;;;;;;4974646;28;20196;-65
2023/11/24 06:37:55;;;;;;;0.30;0.30;;;7.00;99.90;;;;;;4956925;28;20204;-65
2023/11/24 06:40:21;;;;;;;0.70;0.70;;;7.00;99.90;;;;;;4974792;28;20195;-68
2023/11/24 06:42:46;;;;;;;0.30;0.30;;;7.00;99.90;;;;;;4974722;28;20175;-69
2023/11/24 06:45:15;;;;;;;0.30;0.30;;;7.00;99.90;;;;;;4974151;28;20195;-69
2023/11/24 06:47:41;;;;;;;0.35;0.35;;;6.90;99.90;;;;;;4974731;28;20176;-70
2023/11/24 06:50:12;;;;;;;0.30;0.30;;;7.00;99.90;;;;;;4974586;28;20176;-71
2023/11/24 06:52:41;;;;;;;0.40;0.40;;;7.00;99.90;;;;;;4974299;28;20172;-69
2023/11/24 06:55:07;;;;;;;0.30;0.30;;;7.00;99.90;;;;;;4974174;28;20199;-68
2023/11/24 06:57:33;;;;;;;0.30;0.30;;;7.00;99.90;;;;;;4974533;28;20200;-67
2023/11/24 06:59:59;;;;;;;0.40;0.40;;;7.00;99.90;;;;;;4977115;28;20205;-68
2023/11/24 07:02:25;;;;;;;0.40;0.40;;;7.10;99.90;;;;;;4974331;28;20477;-68
2023/11/24 07:04:50;;;;;;;0.30;0.30;;;7.10;99.90;;;;;;4973495;28;20282;-70
2023/11/24 07:07:16;;;;;;;0.30;0.30;;;7.10;99.90;;;;;;4974267;28;20200;-67
2023/11/24 07:09:43;;;;;;;0.40;0.40;;;7.10;99.90;;;;;;4974528;28;20175;-67
2023/11/24 07:12:12;;;;;;;0.30;0.30;;;7.10;99.90;;;;;;4974590;28;20178;-69
2023/11/24 07:14:38;;;;;;;0.40;0.40;;;7.20;99.90;;;;;;4966360;28;20177;-66
2023/11/24 07:17:05;;;;;;;0.30;0.30;;;7.20;99.90;;;;;;4971833;28;20195;-69
2023/11/24 07:19:30;;;;;;;0.40;0.40;;;7.20;99.90;;;;;;4974240;28;20172;-69
2023/11/24 07:21:57;;;;;;;0.40;0.40;;;7.20;99.90;;;;;;4974365;28;20168;-69
2023/11/24 07:24:22;;;;;;;0.30;0.30;;;7.20;99.90;;;;;;4969370;28;20481;-69
2023/11/24 07:26:48;;;;;;;0.40;0.40;;;7.30;99.90;;;;;;4974319;28;20192;-68
2023/11/24 07:29:15;;;;;;;0.30;0.30;;;7.30;99.90;;;;;;4973922;28;20180;-68
2023/11/24 07:31:41;;;;;;;0.32;0.32;;;7.40;99.90;;;;;;4974175;28;20196;-68
2023/11/24 07:34:06;;;;;;;0.40;0.40;;;7.40;99.90;;;;;;4973955;28;20205;-68
2023/11/24 07:36:32;;;;;;;0.30;0.30;;;7.40;99.90;;;;;;4977202;28;20192;-69
2023/11/24 07:38:58;;;;;;;0.30;0.30;;;7.40;99.90;;;;;;4960459;28;20214;-69
2023/11/24 07:41:24;;;;;;;0.35;0.35;;;7.40;99.90;;;;;;4978130;28;20179;-68
2023/11/24 07:43:50;;;;;;;0.38;0.38;;;7.40;99.90;;;;;;4977952;28;20192;-66
2023/11/24 07:46:17;;;;;;;0.30;0.30;;;7.40;99.90;;;;;;4977865;28;20219;-67
2023/11/24 07:48:43;;;;;;;0.30;0.30;;;7.30;99.90;;;;;;4977461;28;20587;-66
2023/11/24 07:51:10;;;;;;;0.30;0.30;;;7.30;99.90;;;;;;4977850;28;20172;-66
2023/11/24 07:53:35;;;;;;;0.30;0.30;;;7.30;99.90;;;;;;4977853;28;20168;-67
2023/11/24 07:56:01;;;;;;;0.30;0.30;;;7.20;99.90;;;;;;4977562;28;20270;-64
2023/11/24 07:58:29;;;;;;;0.30;0.30;;;7.20;99.90;;;;;;4977053;28;20674;-67
2023/11/24 08:00:55;;;;;;;0.30;0.30;;;7.20;99.90;;;;;;4977498;28;20219;-66
2023/11/24 08:03:20;;;;;;;0.40;0.40;;;7.20;99.90;;;;;;4977749;28;20636;-67
2023/11/24 08:05:50;;;;;;;0.40;0.40;;;7.20;99.90;;;;;;4977350;28;20202;-66
2023/11/24 08:08:16;;;;;;;0.30;0.30;;;7.10;99.90;;;;;;4977821;28;20528;-66
2023/11/24 08:10:43;;;;;;;0.32;0.32;;;7.20;99.90;;;;;;4977074;28;20183;-66
2023/11/24 08:13:08;;;;;;;0.30;0.30;;;7.20;99.90;;;;;;4978027;28;20186;-67
2023/11/24 08:15:34;;;;;;;0.40;0.40;;;7.20;99.90;;;;;;4977233;28;20523;-66
2023/11/24 08:18:00;;;;;;;0.30;0.30;;;7.20;99.90;;;;;;4978022;28;20239;-65
2023/11/24 08:20:26;;;;;;;0.30;0.30;;;7.20;99.90;;;;;;4977070;28;20423;-66
2023/11/24 08:22:52;;;;;;;0.30;0.30;;;7.30;99.90;;;;;;4977130;28;20179;-66
2023/11/24 08:25:18;;;;;;;0.30;0.30;;;7.30;99.90;;;;;;4976856;28;20188;-68
2023/11/24 08:27:44;;;;;;;0.40;0.40;;;7.30;99.90;;;;;;4977219;28;20444;-69
2023/11/24 08:30:10;;;;;;;0.40;0.40;;;7.40;99.90;;;;;;4977470;28;20827;-66
2023/11/24 08:32:38;;;;;;;0.30;0.30;;;7.40;99.90;;;;;;4977108;28;20258;-67
2023/11/24 08:35:05;;;;;;;0.30;0.30;;;7.50;99.90;;;;;;4976621;28;20202;-67
2023/11/24 08:37:31;;;;;;;0.30;0.30;;;7.50;99.90;;;;;;4976772;28;20199;-66
2023/11/24 08:39:58;;;;;;;0.30;0.30;;;7.50;99.90;;;;;;4976845;28;20178;-68
2023/11/24 08:42:24;;;;;;;0.32;0.32;;;7.60;99.90;;;;;;4976952;28;20168;-67
2023/11/24 08:44:50;;;;;;;0.30;0.30;;;7.60;99.90;;;;;;4976332;28;20161;-68
2023/11/24 08:47:15;;;;;;;0.40;0.40;;;7.70;99.90;;;;;;4975261;28;20172;-68
2023/11/24 08:49:41;;;;;;;0.30;0.30;;;7.70;99.90;;;;;;4976561;28;20180;-66
2023/11/24 08:52:07;;;;;;;0.33;0.33;;;7.70;99.90;;;;;;4976800;28;20556;-66
2023/11/24 08:54:32;;;;;;;0.40;0.40;;;7.80;99.90;;;;;;4975480;28;20195;-66
2023/11/24 08:56:58;;;;;;;0.30;0.30;;;7.80;99.90;;;;;;4975864;28;20229;-68
2023/11/24 08:59:24;;;;;;;0.30;0.30;;;7.80;99.90;;;;;;4975324;28;20199;-68
2023/11/24 09:01:50;;;;;;;0.30;0.30;;;7.80;99.90;;;;;;4975854;28;20667;-68
2023/11/24 09:04:15;;;;;;;0.30;0.30;;;7.80;99.90;;;;;;4975328;28;20177;-68
2023/11/24 09:06:41;;;;;;;0.30;0.30;;;7.90;99.90;;;;;;4975382;28;20291;-65
2023/11/24 09:09:07;;;;;;;0.37;0.37;;;8.00;99.90;;;;;;4975569;28;20183;-66
2023/11/24 09:11:33;;;;;;;0.30;0.30;;;8.00;99.90;;;;;;4973540;28;20611;-65
2023/11/24 09:13:58;;;;;;;0.30;0.30;;;8.10;99.90;;;;;;4975100;28;20172;-68
2023/11/24 09:16:24;;;;;;;0.33;0.33;;;8.20;99.90;;;;;;4975385;28;20242;-70
2023/11/24 09:18:50;;;;;;;0.30;0.30;;;8.30;99.90;;;;;;4975878;28;20204;-68
2023/11/24 09:21:17;;;;;;;0.30;0.30;;;8.40;99.90;;;;;;4975544;28;20177;-67
2023/11/24 09:23:43;;;;;;;0.30;0.30;;;8.50;99.90;;;;;;4975802;28;20179;-68
2023/11/24 09:26:09;;;;;;;0.40;0.40;;;8.60;99.90;;;;;;4975298;28;20204;-68
2023/11/24 09:28:36;;;;;;;0.30;0.30;;;8.70;99.90;;;;;;4976582;28;20407;-67
2023/11/24 09:31:08;;;;;;;0.30;0.30;;;8.70;99.90;;;;;;4975842;28;20424;-65
2023/11/24 09:33:37;;;;;;;0.30;0.30;;;8.70;99.90;;;;;;4976142;28;20235;-68
2023/11/24 09:36:03;;;;;;;0.30;0.30;;;8.80;99.90;;;;;;4975783;28;20200;-67
2023/11/24 09:38:29;;;;;;;0.30;0.30;;;8.80;99.90;;;;;;4976115;28;20275;-66
2023/11/24 09:41:01;;;;;;;0.30;0.30;;;8.90;99.90;;;;;;4975713;28;20264;-65
2023/11/24 09:43:27;;;;;;;0.40;0.40;;;9.10;99.90;;;;;;4976166;28;20172;-66
2023/11/24 09:45:54;;;;;;;0.30;0.20;;;9.10;99.90;;;;;;4975478;28;20196;-67
2023/11/24 09:48:20;;;;;;;0.30;0.30;;;9.20;99.90;;;;;;4975940;28;20185;-68
2023/11/24 09:50:48;;;;;;;0.30;0.30;;;9.20;99.90;;;;;;4975484;28;20712;-68
2023/11/24 09:53:17;;;;;;;0.35;0.35;;;9.20;99.90;;;;;;4975678;28;20255;-67
2023/11/24 09:55:43;;;;;;;0.30;0.30;;;9.20;99.90;;;;;;4975292;28;20189;-66
2023/11/24 09:58:10;;;;;;;0.40;0.40;;;9.30;99.90;;;;;;4975359;28;20230;-67
2023/11/24 10:00:35;;;;;;;0.30;0.30;;;9.30;99.90;;;;;;4975228;28;20205;-67
2023/11/24 10:03:06;;;;;;;0.40;0.40;;;9.30;99.90;;;;;;4975735;28;20173;-68
2023/11/24 10:05:32;;;;;;;0.30;0.30;;;9.40;99.90;;;;;;4974706;28;20236;-66
2023/11/24 10:08:00;;;;;;;0.80;0.80;;;9.30;99.90;;;;;;4975187;28;20221;-68
2023/11/24 10:10:27;;;;;;;0.30;0.30;;;9.40;99.90;;;;;;4975533;28;20213;-67
2023/11/24 10:12:54;;;;;;;0.30;0.30;;;9.40;99.90;;;;;;4975506;28;20672;-67
2023/11/24 10:15:20;;;;;;;0.30;0.30;;;9.40;99.90;;;;;;4974589;28;20593;-67
2023/11/24 10:17:48;;;;;;;0.33;0.33;;;9.50;99.90;;;;;;4957955;28;20292;-67
2023/11/24 10:20:18;;;;;;;0.30;0.30;;;9.50;99.90;;;;;;4975401;28;20170;-67
2023/11/24 10:22:50;;;;;;;0.57;0.45;;;9.60;99.90;;;;;;4975148;28;20177;-66
2023/11/24 10:25:20;;;;;;;0.30;0.30;;;9.60;99.90;;;;;;4974733;28;20207;-67
2023/11/24 10:27:47;;;;;;;0.30;0.30;;;9.50;99.90;;;;;;4975123;28;20165;-67
2023/11/24 10:30:13;;;;;;;0.30;0.30;;;9.40;99.90;;;;;;4975081;28;20172;-67
2023/11/24 10:32:43;;;;;;;0.30;0.30;;;9.50;99.90;;;;;;4974916;28;20179;-67
2023/11/24 10:35:12;;;;;;;0.30;0.30;;;9.70;99.90;;;;;;4974364;28;20661;-67
2023/11/24 10:37:39;;;;;;;0.30;0.30;;;9.70;99.90;;;;;;4974948;28;20673;-67
2023/11/24 10:40:09;;;;;;;0.30;0.30;;;9.60;99.90;;;;;;4974953;28;20169;-67
2023/11/24 10:42:38;;;;;;;0.30;0.20;;;9.50;99.90;;;;;;4975007;28;20652;-67
2023/11/24 10:45:09;;;;;;;0.30;0.30;;;9.20;99.90;;;;;;4974002;28;20204;-68
2023/11/24 10:47:43;;;;;;;0.32;0.32;;;9.00;99.90;;;;;;4974929;28;20239;-67
2023/11/24 10:50:20;;;;;;;0.30;0.30;;;8.90;99.90;;;;;;4974727;28;20177;-67
2023/11/24 10:53:13;;;;;;;0.30;0.30;;;8.90;99.90;;;;;;4974833;28;20263;-67
2023/11/24 10:55:40;;;;;;;0.40;0.40;;;9.00;99.90;;;;;;4954910;28;20632;-67
2023/11/24 10:58:06;;;;;;;0.30;0.30;;;9.00;99.90;;;;;;4955313;29;20200;-68
2023/11/24 11:00:32;;;;;;;0.30;0.30;;;9.10;99.90;;;;;;4955379;29;20189;-66
2023/11/24 11:02:58;;;;;;;0.30;0.30;;;9.10;99.90;;;;;;4938179;28;20177;-68
2023/11/24 11:05:57;;;;;;;0.30;0.30;;;9.20;99.90;;;;;;4973707;28;20664;-67
2023/11/24 11:08:34;;;;;;;0.30;0.20;;;9.30;99.90;;;;;;4974492;28;20181;-68
2023/11/24 11:11:06;;;;;;;0.30;0.30;;;9.30;99.90;;;;;;4974230;28;20177;-66
2023/11/24 11:13:34;;;;;;;0.30;0.30;;;9.40;99.90;;;;;;4974306;28;20267;-67
2023/11/24 11:16:05;;;;;;;0.40;0.40;;;9.50;99.90;;;;;;4973961;28;20724;-68
2023/11/24 11:18:33;;;;;;;0.32;0.32;;;9.60;99.90;;;;;;4974799;28;20219;-67
2023/11/24 11:21:08;;;;;;;0.30;0.30;;;9.60;99.90;;;;;;4974334;28;20177;-68
2023/11/24 11:23:36;;;;;;;0.40;0.40;;;9.70;99.90;;;;;;4974032;28;20416;-68
2023/11/24 11:26:02;;;;;;;0.68;0.68;;;9.60;99.90;;;;;;4973738;28;20193;-67
2023/11/24 11:28:43;;;;;;;0.30;0.30;;;9.70;99.90;;;;;;4974436;28;20177;-70
2023/11/24 11:31:27;;;;;;;0.30;0.30;;;9.80;99.90;;;;;;4974570;28;20447;-69
2023/11/24 11:33:53;;;;;;;0.30;0.30;;;9.80;99.90;;;;;;4973558;28;20177;-66
2023/11/24 11:36:23;;;;;;;0.40;0.40;;;9.80;99.90;;;;;;4974416;28;20205;-69
2023/11/24 11:38:53;;;;;;;0.30;0.30;;;9.80;99.90;;;;;;4974341;28;20224;-68
2023/11/24 11:41:40;;;;;;;0.30;0.20;;;9.70;99.90;;;;;;4974067;28;20169;-68
2023/11/24 11:44:22;;;;;;;0.30;0.30;;;9.70;99.90;;;;;;4973638;28;20187;-66
2023/11/24 11:47:20;;;;;;;0.40;0.40;;;9.60;99.90;;;;;;4974301;28;20188;-68
2023/11/24 11:49:51;;;;;;;0.30;0.30;;;9.50;99.90;;;;;;4973765;28;20227;-68
2023/11/24 11:52:19;;;;;;;0.30;0.30;;;9.40;99.90;;;;;;4973144;28;20692;-67
2023/11/24 11:54:47;;;;;;;0.30;0.30;;;9.40;99.90;;;;;;4973097;28;20247;-66
2023/11/24 11:57:13;;;;;;;0.30;0.30;;;9.20;99.90;;;;;;4973838;28;20181;-67
2023/11/24 11:59:39;;;;;;;0.30;0.23;;;9.20;99.90;;;;;;4973914;28;20173;-66
2023/11/24 12:02:08;;;;;;;0.30;0.20;;;9.10;99.90;;;;;;4956225;28;20467;-68
2023/11/24 12:04:34;;;;;;;0.30;0.20;;;9.00;99.90;;;;;;4955277;28;20691;-67
2023/11/24 12:07:01;;;;;;;0.30;0.30;;;9.00;99.90;;;;;;4973315;28;20223;-67
2023/11/24 12:09:26;;;;;;;0.30;0.30;;;8.90;99.90;;;;;;4973058;28;20184;-69
2023/11/24 12:11:52;;;;;;;0.30;0.30;;;8.80;99.90;;;;;;4972951;28;20597;-69
2023/11/24 12:14:17;;;;;;;0.33;0.33;;;8.70;99.90;;;;;;4973259;28;20176;-67
2023/11/24 12:16:43;;;;;;;0.30;0.30;;;8.70;99.90;;;;;;4973062;28;20196;-67
2023/11/24 12:19:10;;;;;;;0.30;0.30;;;8.60;99.90;;;;;;4973844;28;20291;-68
2023/11/24 12:21:37;;;;;;;0.30;0.30;;;8.60;99.90;;;;;;4974914;28;21017;-67
2023/11/24 12:24:04;;;;;;;0.30;0.30;;;8.50;99.90;;;;;;4959197;28;20224;-68
2023/11/24 12:26:31;;;;;;;0.30;0.30;;;8.50;99.90;;;;;;4976638;28;20219;-68
2023/11/24 12:28:59;;;;;;;0.30;0.30;;;8.50;99.90;;;;;;4977264;28;20255;-68
2023/11/24 12:31:28;;;;;;;0.30;0.30;;;8.60;99.90;;;;;;4977236;28;20198;-68
2023/11/24 12:33:55;;;;;;;0.30;0.30;;;8.60;99.90;;;;;;4976510;28;20172;-68
2023/11/24 12:36:23;;;;;;;0.40;0.40;;;8.60;99.90;;;;;;4976855;28;20204;-66
2023/11/24 12:38:49;;;;;;;0.30;0.30;;;8.60;99.90;;;;;;4976144;28;20308;-67
2023/11/24 12:41:16;;;;;;;0.30;0.30;;;8.60;99.90;;;;;;4976654;28;20180;-67
2023/11/24 12:43:42;;;;;;;0.30;0.30;;;8.50;99.90;;;;;;4976428;28;20686;-65
2023/11/24 12:46:21;;;;;;;0.30;0.30;;;8.40;99.90;;;;;;4976134;28;20203;-66
2023/11/24 12:48:47;;;;;;;0.30;0.30;;;8.40;99.90;;;;;;4976825;28;20196;-64
2023/11/24 12:51:15;;;;;;;0.30;0.30;;;8.30;99.90;;;;;;4976585;28;20210;-65
2023/11/24 12:53:40;;;;;;;0.30;0.30;;;8.30;99.90;;;;;;4958960;28;20191;-68
2023/11/24 12:56:06;;;;;;;0.30;0.30;;;8.20;99.90;;;;;;4975941;28;20266;-66
2023/11/24 12:58:32;;;;;;;0.30;0.30;;;8.20;99.90;;;;;;4976341;28;20258;-67
2023/11/24 13:00:58;;;;;;;0.30;0.30;;;8.20;99.90;;;;;;4976378;28;20587;-66
2023/11/24 13:03:23;;;;;;;0.30;0.30;;;8.30;99.90;;;;;;4976037;28;20433;-67
2023/11/24 13:05:49;;;;;;;0.30;0.30;;;8.20;99.90;;;;;;4975904;28;20274;-68
2023/11/24 13:08:17;;;;;;;0.30;0.30;;;8.20;99.90;;;;;;4976258;28;20198;-67
2023/11/24 13:10:43;;;;;;;0.30;0.30;;;8.10;99.90;;;;;;4976299;28;20536;-64
2023/11/24 13:13:10;;;;;;;0.40;0.40;;;8.10;99.90;;;;;;4975751;28;20190;-65
2023/11/24 13:15:37;;;;;;;0.45;0.43;;;8.10;99.90;;;;;;4975733;28;20188;-67
2023/11/24 13:18:04;;;;;;;0.30;0.30;;;8.00;99.90;;;;;;4975874;28;20207;-66
2023/11/24 13:20:32;;;;;;;0.38;0.38;;;7.90;99.90;;;;;;4975947;28;20199;-65
2023/11/24 13:22:58;;;;;;;0.30;0.30;;;7.80;99.90;;;;;;4975576;28;20255;-66
2023/11/24 13:25:26;;;;;;;0.40;0.40;;;7.60;99.90;;;;;;4975496;28;20271;-66
2023/11/24 13:27:52;;;;;;;0.30;0.30;;;7.50;99.90;;;;;;4975862;28;20415;-66
2023/11/24 13:30:21;;;;;;;0.30;0.30;;;7.40;99.90;;;;;;4975875;28;20207;-67
2023/11/24 13:32:48;;;;;;;0.30;0.30;;;7.30;99.90;;;;;;4974880;28;20179;-66
2023/11/24 13:35:16;;;;;;;0.30;0.30;;;7.20;99.90;;;;;;4975062;28;20192;-64
2023/11/24 13:37:47;;;;;;;0.30;0.30;;;7.00;99.90;;;;;;4975363;28;20219;-64
2023/11/24 13:40:16;;;;;;;0.30;0.30;;;6.90;99.90;;;;;;4975609;28;20263;-66
2023/11/24 13:42:43;;;;;;;0.43;0.43;;;6.80;99.90;;;;;;4975159;28;20171;-65
2023/11/24 13:45:12;;;;;;;0.30;0.30;;;6.70;99.90;;;;;;4975145;28;20257;-66
2023/11/24 13:47:39;;;;;;;0.30;0.30;;;6.70;99.90;;;;;;4975141;28;20254;-66
2023/11/24 13:50:06;;;;;;;0.30;0.30;;;6.70;99.90;;;;;;4975358;28;20186;-66
2023/11/24 13:52:34;;;;;;;0.30;0.30;;;6.60;99.90;;;;;;4975060;28;20302;-66
2023/11/24 13:55:00;;;;;;;0.30;0.30;;;6.70;99.90;;;;;;4974958;28;20188;-66
2023/11/24 13:57:27;;;;;;;0.30;0.30;;;6.70;99.90;;;;;;4975278;28;20169;-64
2023/11/24 13:59:53;;;;;;;0.30;0.30;;;6.70;99.90;;;;;;4975039;28;20168;-65
2023/11/24 14:02:19;;;;;;;0.30;0.30;;;6.70;99.90;;;;;;4974956;28;20540;-64
2023/11/24 14:04:45;;;;;;;0.93;0.93;;;6.70;99.90;;;;;;4974706;28;20170;-66
2023/11/24 14:07:12;;;;;;;0.40;0.40;;;6.70;99.90;;;;;;4957057;28;20635;-66
2023/11/24 14:09:40;;;;;;;0.30;0.30;;;6.70;99.90;;;;;;4974564;28;20391;-66
2023/11/24 14:12:06;;;;;;;0.40;0.40;;;6.70;99.90;;;;;;4975099;28;20187;-64
2023/11/24 14:14:32;;;;;;;0.30;0.30;;;6.70;99.90;;;;;;4974219;28;20319;-65
2023/11/24 14:17:00;;;;;;;0.30;0.30;;;6.60;99.90;;;;;;4974800;28;20675;-65
2023/11/24 14:19:27;;;;;;;0.40;0.40;;;6.60;99.90;;;;;;4974678;28;20451;-67
2023/11/24 14:21:55;;;;;;;0.30;0.30;;;6.60;99.90;;;;;;4974905;28;20187;-65
2023/11/24 14:24:21;;;;;;;0.30;0.30;;;6.60;99.90;;;;;;4974453;28;20885;-66
2023/11/24 14:26:47;;;;;;;0.30;0.30;;;6.60;99.90;;;;;;4975051;28;20214;-65
2023/11/24 14:29:13;;;;;;;0.40;0.40;;;6.60;99.90;;;;;;4974674;28;20444;-70
2023/11/24 14:31:39;;;;;;;0.30;0.30;;;6.60;99.90;;;;;;4974379;28;20183;-66
2023/11/24 14:34:06;;;;;;;0.45;0.45;;;6.70;99.90;;;;;;4974065;28;20532;-64
2023/11/24 14:36:32;;;;;;;0.40;0.40;;;6.70;99.90;;;;;;4974388;28;20192;-65
2023/11/24 14:38:59;;;;;;;0.40;0.40;;;6.70;99.90;;;;;;4974213;28;20731;-67
2023/11/24 14:41:25;;;;;;;0.40;0.40;;;6.80;99.90;;;;;;4974201;28;20544;-67
2023/11/24 14:43:51;;;;;;;0.32;0.32;;;6.80;99.90;;;;;;4974440;28;20254;-66
2023/11/24 14:46:20;;;;;;;0.45;0.45;;;6.70;99.90;;;;;;4973567;28;20220;-66
2023/11/24 14:48:49;;;;;;;0.40;0.40;;;6.70;99.90;;;;;;4974500;28;20258;-65
2023/11/24 14:51:15;;;;;;;0.38;0.38;;;6.70;99.90;;;;;;4973772;28;20180;-75
2023/11/24 14:53:42;;;;;;;0.30;0.30;;;6.70;99.90;;;;;;4974123;28;20180;-70
2023/11/24 14:56:18;;;;;;;0.30;0.30;;;6.70;99.90;;;;;;4974073;28;20273;-69
2023/11/24 14:58:47;;;;;;;0.40;0.40;;;6.20;99.90;;;;;;4974257;28;20205;-73
2023/11/24 15:01:17;;;;;;;0.30;0.30;;;5.40;99.90;;;;;;4973580;28;20178;-68
2023/11/24 15:03:44;;;;;;;0.38;0.38;;;4.70;99.90;;;;;;4969454;28;20177;-69
2023/11/24 15:06:14;;;;;;;0.38;0.38;;;4.20;99.90;;;;;;4956873;28;20305;-68
2023/11/24 15:08:46;;;;;;;0.40;0.40;;;3.80;99.90;;;;;;4969242;28;20261;-70
2023/11/24 15:11:17;;;;;;;0.30;0.30;;;3.60;99.90;;;;;;4965529;28;20275;-65
2023/11/24 15:13:47;;;;;;;0.40;0.40;;;3.40;99.90;;;;;;4956575;28;20268;-68
2023/11/24 15:16:17;;;;;;;0.30;0.30;;;3.40;99.90;;;;;;4973616;28;20667;-71
2023/11/24 15:18:47;;;;;;;0.40;0.40;;;3.40;99.90;;;;;;4974018;28;20200;-68
2023/11/24 15:21:26;;;;;;;0.35;0.35;;;3.40;99.90;;;;;;4971145;28;20180;-68
2023/11/24 15:23:54;;;;;;;0.40;0.40;;;3.40;99.90;;;;;;4973704;28;20176;-68
2023/11/24 15:26:23;;;;;;;0.40;0.40;;;3.40;99.90;;;;;;4964889;28;20211;-67
2023/11/24 15:28:51;;;;;;;0.40;0.40;;;3.40;99.90;;;;;;4962268;28;20169;-69
2023/11/24 15:31:19;;;;;;;0.30;0.30;;;3.50;99.90;;;;;;4963134;28;20181;-69
2023/11/24 15:33:46;;;;;;;0.40;0.40;;;3.50;99.90;;;;;;4967773;28;20179;-68
2023/11/24 15:36:13;;;;;;;0.30;0.30;;;3.50;99.90;;;;;;4973479;28;20195;-68
2023/11/24 15:38:38;;;;;;;0.35;0.35;;;3.60;99.90;;;;;;4974022;28;20188;-67
2023/11/24 15:41:06;;;;;;;0.30;0.30;;;3.60;99.90;;;;;;4973565;28;20245;-67
2023/11/24 15:43:34;;;;;;;0.45;0.45;;;3.60;99.90;;;;;;4971013;28;20184;-67
2023/11/24 15:46:00;;;;;;;0.40;0.40;;;3.60;99.90;;;;;;4965915;28;20197;-68
2023/11/24 15:48:26;;;;;;;0.30;0.30;;;3.70;99.90;;;;;;4974041;28;20173;-67
2023/11/24 15:50:56;;;;;;;0.40;0.40;;;3.70;99.90;;;;;;4973615;28;20221;-67
2023/11/24 15:53:22;;;;;;;0.50;0.50;;;3.80;99.90;;;;;;4966826;28;20426;-68
2023/11/24 15:55:52;;;;;;;0.40;0.40;;;3.80;99.90;;;;;;4955035;28;20274;-68
2023/11/24 15:58:23;;;;;;;0.30;0.30;;;3.90;99.90;;;;;;4962770;28;20559;-69
2023/11/24 16:00:49;;;;;;;0.30;0.30;;;4.00;99.90;;;;;;4969392;28;20181;-69
2023/11/24 16:03:20;;;;;;;0.30;0.30;;;4.00;99.90;;;;;;4975729;28;20272;-70
2023/11/24 16:05:49;;;;;;;0.40;0.40;;;4.10;99.90;;;;;;4966139;28;20201;-70
2023/11/24 16:08:16;;;;;;;0.40;0.40;;;4.10;99.90;;;;;;4960613;28;20200;-69
2023/11/24 16:10:56;;;;;;;0.40;0.40;;;4.20;99.90;;;;;;4977042;28;20267;-69
2023/11/24 16:13:24;;;;;;;0.50;0.50;;;4.20;99.90;;;;;;4976521;28;20173;-69
2023/11/24 16:15:50;;;;;;;0.43;0.43;;;4.30;99.90;;;;;;4975623;28;20609;-69
2023/11/24 16:18:16;;;;;;;0.40;0.40;;;4.30;99.90;;;;;;4969014;28;20221;-69
2023/11/24 16:20:42;;;;;;;0.40;0.40;;;4.40;99.90;;;;;;4951941;28;20184;-68
2023/11/24 16:23:07;;;;;;;0.30;0.30;;;4.40;99.90;;;;;;4970630;28;20173;-70
2023/11/24 16:25:33;;;;;;;0.37;0.37;;;4.40;99.90;;;;;;4976691;28;20192;-71
2023/11/24 16:28:01;;;;;;;0.43;0.43;;;4.40;99.90;;;;;;4977209;28;20511;-70
2023/11/24 16:30:28;;;;;;;0.50;0.50;;;4.40;99.90;;;;;;4975943;28;20176;-69
2023/11/24 16:32:54;;;;;;;0.40;0.40;;;4.40;99.90;;;;;;4976740;28;20710;-65
2023/11/24 16:35:19;;;;;;;0.30;0.30;;;4.40;99.90;;;;;;4976430;28;20288;-62
2023/11/24 16:37:45;;;;;;;0.40;0.40;;;4.40;99.90;;;;;;4976839;28;20308;-61
2023/11/24 16:40:14;;;;;;;0.30;0.30;;;4.30;99.90;;;;;;4976170;28;20177;-62
2023/11/24 16:42:40;;;;;;;0.40;0.40;;;4.20;99.90;;;;;;4976709;28;20471;-62
2023/11/24 16:45:06;;;;;;;0.40;0.40;;;4.10;99.90;;;;;;4975857;28;20221;-62
2023/11/24 16:47:37;;;;;;;0.50;0.50;;;4.10;99.90;;;;;;4976476;28;20614;-62
2023/11/24 16:50:10;;;;;;;0.30;0.30;;;4.00;99.90;;;;;;4968556;28;20181;-62
2023/11/24 16:52:41;;;;;;;0.40;0.40;;;3.90;99.90;;;;;;4976125;28;20183;-62
2023/11/24 16:55:07;;;;;;;0.40;0.40;;;3.90;99.90;;;;;;4975833;28;20196;-64
2023/11/24 16:57:35;;;;;;;0.38;0.38;;;3.80;99.90;;;;;;4976033;28;20509;-64
2023/11/24 17:00:04;;;;;;;0.40;0.40;;;3.70;99.90;;;;;;4975528;28;20192;-62
2023/11/24 17:02:30;;;;;;;0.40;0.40;;;3.70;99.90;;;;;;4975864;28;20545;-63
2023/11/24 17:04:55;;;;;;;0.30;0.30;;;3.60;99.90;;;;;;4975488;28;20172;-62